»·PEaware :: N141AA KGEG-KPDX

N141AA :: KGEG-KPDX

FLIGHT INFORMATION

Flight Status: Arrived
Operator: Privately registered:
United States
More flights under this callsign
Pilot: Jackson G. (14605)
Aircraft: DASSAULT AVIATION FALCON 50
(FA50)
More flights by this aircraft type
Origin: KGEG Spokane Intl
United States
Destination: KPDX Portland Intl
United States
More flights between these airports :: More routes between these airports
Route: +GEG6 YKM YENTL HHOOD4
File this flight plan on PilotEdge
Remarks:
Altitude:
(Current/Filed)
190ft
Speed:
(Current/Filed)
250kts
Departed: 29-Jun-20 08:55 PM
Arrived: 29-Jun-20 10:04 PM
Distance/Time
Traveled:
241nm/1:08
Distance/Time
To Go:
Arrived

Flight Plot

Page will automatically refresh every two minutes.


Map Options




Map Legend


Flown Route
Filed Route
Departure Airport
Arrival Airport
Navaid (VOR, NDB)
Fix

Horizontal Profiles

Position Reports

Time Latitude Longitude Heading Altitude Ground
Speed
29-Jun-20 20:40 47.623506 -117.524441 269 2388ft 0kts
29-Jun-20 20:41 47.623506 -117.524441 269 2388ft 0kts
29-Jun-20 20:42 47.623506 -117.524441 269 2388ft 0kts
29-Jun-20 20:42 47.623506 -117.524441 269 2388ft 0kts
29-Jun-20 20:44 47.623506 -117.524441 269 2388ft 0kts
29-Jun-20 20:45 47.623506 -117.524441 269 2388ft 0kts
29-Jun-20 20:45 47.623506 -117.524441 269 2388ft 0kts
29-Jun-20 20:47 47.623506 -117.524441 269 2388ft 0kts
29-Jun-20 20:47 47.623506 -117.524441 269 2388ft 0kts
29-Jun-20 20:48 47.623506 -117.524441 269 2388ft 0kts
29-Jun-20 20:49 47.623506 -117.524441 269 2388ft 0kts
29-Jun-20 20:50 47.623506 -117.524441 269 2388ft 0kts
29-Jun-20 20:51 47.624130 -117.525280 16 2388ft 17kts
29-Jun-20 20:52 47.627476 -117.520420 45 2388ft 33kts
29-Jun-20 20:53 47.630349 -117.517213 315 2388ft 0kts
29-Jun-20 20:54 47.619255 -117.536620 227 2860ft 153kts
29-Jun-20 20:55 47.579920 -117.599788 224 4654ft 281kts
29-Jun-20 20:56 47.523713 -117.683186 224 6129ft 262kts
29-Jun-20 20:57 47.476243 -117.753534 224 7809ft 226kts
29-Jun-20 20:58 47.434491 -117.815372 224 9495ft 200kts
29-Jun-20 20:59 47.401932 -117.888612 256 11318ft 263kts
29-Jun-20 21:00 47.377451 -117.990147 246 13111ft 247kts
29-Jun-20 21:01 47.350696 -118.076851 245 14896ft 218kts
29-Jun-20 21:02 47.325482 -118.156659 245 16696ft 221kts
29-Jun-20 21:03 47.299173 -118.239994 245 18496ft 229kts
29-Jun-20 21:04 47.269654 -118.333221 245 19004ft 283kts
29-Jun-20 21:05 47.233492 -118.446893 245 19001ft 326kts
29-Jun-20 21:06 47.193698 -118.571359 245 19000ft 345kts
29-Jun-20 21:07 47.152221 -118.700387 244 19000ft 353kts
29-Jun-20 21:08 47.109863 -118.831458 244 19000ft 356kts
29-Jun-20 21:09 47.067184 -118.962846 244 19000ft 358kts
29-Jun-20 21:10 47.024172 -119.094577 244 19000ft 358kts
29-Jun-20 21:11 46.980994 -119.226140 244 18999ft 358kts
29-Jun-20 21:12 46.937805 -119.357061 244 19000ft 358kts
29-Jun-20 21:13 46.894166 -119.488684 244 19000ft 358kts
29-Jun-20 21:14 46.850668 -119.619201 244 19000ft 358kts
29-Jun-20 21:15 46.806749 -119.750328 243 18999ft 358kts
29-Jun-20 21:16 46.762874 -119.880671 243 18999ft 359kts
29-Jun-20 21:17 46.718833 -120.010846 243 19000ft 359kts
29-Jun-20 21:18 46.674601 -120.140941 243 18999ft 359kts
29-Jun-20 21:19 46.630041 -120.271346 243 19000ft 359kts
29-Jun-20 21:20 46.586167 -120.399083 243 20148ft 323kts
29-Jun-20 21:21 46.530244 -120.486615 216 20175ft 290kts
29-Jun-20 21:22 46.465510 -120.554179 215 19002ft 274kts
29-Jun-20 21:23 46.408049 -120.613661 215 18997ft 236kts
29-Jun-20 21:24 46.355213 -120.668316 215 19010ft 269kts
29-Jun-20 21:25 46.281430 -120.744622 215 19003ft 369kts
29-Jun-20 21:26 46.200468 -120.827968 215 18998ft 341kts
29-Jun-20 21:27 46.125030 -120.905195 215 18999ft 325kts
29-Jun-20 21:28 46.051403 -120.980499 215 18673ft 328kts
29-Jun-20 21:29 45.976269 -121.056980 215 17722ft 322kts
29-Jun-20 21:30 45.907082 -121.127554 215 16150ft 292kts
29-Jun-20 21:31 45.841589 -121.193450 215 14044ft 284kts
29-Jun-20 21:32 45.779388 -121.256135 215 12906ft 248kts
29-Jun-20 21:33 45.727311 -121.308433 215 12918ft 279kts
29-Jun-20 21:34 45.652499 -121.383642 215 12906ft 326kts
29-Jun-20 21:35 45.598547 -121.469633 246 12907ft 275kts
29-Jun-20 21:36 45.570881 -121.567734 248 12710ft 262kts
29-Jun-20 21:37 45.543855 -121.664318 247 12309ft 261kts
29-Jun-20 21:38 45.531010 -121.764654 272 11875ft 262kts
29-Jun-20 21:39 45.535067 -121.870399 272 11175ft 269kts
29-Jun-20 21:40 45.538895 -121.974887 274 10594ft 247kts
29-Jun-20 21:41 45.539574 -121.987594 274 10489ft 240kts
29-Jun-20 21:42 45.539574 -121.987594 274 10489ft 240kts
29-Jun-20 21:43 45.539574 -121.987594 274 10489ft 240kts
29-Jun-20 21:44 45.539574 -121.987594 274 10489ft 240kts
29-Jun-20 21:45 45.539574 -121.987594 274 10489ft 240kts
29-Jun-20 21:46 45.539574 -121.987594 274 10489ft 240kts
29-Jun-20 21:47 45.539574 -121.987594 274 10489ft 240kts
29-Jun-20 21:48 45.539574 -121.987594 274 10489ft 240kts
29-Jun-20 21:49 45.539574 -121.987594 274 10489ft 240kts
29-Jun-20 21:50 45.539574 -121.987594 274 10489ft 240kts
29-Jun-20 21:51 45.539574 -121.987594 274 10489ft 240kts
29-Jun-20 21:52 45.539574 -121.987594 274 10489ft 240kts
29-Jun-20 21:53 45.542051 -122.063637 256 9158ft 225kts
29-Jun-20 21:54 45.526084 -122.146810 254 7552ft 212kts
29-Jun-20 21:55 45.519675 -122.228050 265 6014ft 201kts
29-Jun-20 21:56 45.515521 -122.306337 265 4225ft 193kts
29-Jun-20 21:57 45.516793 -122.373328 278 3539ft 151kts
29-Jun-20 21:58 45.526579 -122.418721 298 2675ft 100kts
29-Jun-20 21:59 45.539086 -122.452450 300 2149ft 98kts
29-Jun-20 22:00 45.552256 -122.486068 298 1754ft 101kts
29-Jun-20 22:01 45.565388 -122.520174 298 1049ft 96kts
29-Jun-20 22:02 45.578379 -122.553347 302 394ft 92kts
29-Jun-20 22:03 45.589169 -122.581261 283 27ft 13kts
29-Jun-20 22:04 45.588573 -122.582239 208 27ft 0kts
29-Jun-20 22:05 45.587080 -122.582943 123 27ft 0kts
29-Jun-20 22:06 45.587061 -122.582897 120 27ft 0kts

Navigation Log

Ident Type
Flight plan parsing failed, navigation log unavailable